sensor_id;sensor_type;location;lat;lon;timestamp;pressure;altitude;pressure_sealevel;temperature;humidity
20013;BME280;10167;42.852;23.042;2023-04-24T00:01:57;94636.78;;;11.50;100.00
20013;BME280;10167;42.852;23.042;2023-04-24T00:04:26;94651.22;;;11.59;100.00
20013;BME280;10167;42.852;23.042;2023-04-24T00:06:55;94643.53;;;11.63;100.00
20013;BME280;10167;42.852;23.042;2023-04-24T00:09:27;94641.19;;;11.67;100.00
20013;BME280;10167;42.852;23.042;2023-04-24T00:11:58;94637.19;;;11.64;100.00
20013;BME280;10167;42.852;23.042;2023-04-24T00:14:27;94638.78;;;11.65;100.00
20013;BME280;10167;42.852;23.042;2023-04-24T00:16:56;94628.25;;;11.70;100.00
20013;BME280;10167;42.852;23.042;2023-04-24T00:19:26;94623.75;;;11.71;100.00
20013;BME280;10167;42.852;23.042;2023-04-24T00:21:56;94637.63;;;11.78;100.00
20013;BME280;10167;42.852;23.042;2023-04-24T00:24:25;94633.63;;;11.75;100.00
20013;BME280;10167;42.852;23.042;2023-04-24T00:26:54;94628.94;;;11.82;100.00
20013;BME280;10167;42.852;23.042;2023-04-24T00:29:25;94630.91;;;11.70;100.00
20013;BME280;10167;42.852;23.042;2023-04-24T00:31:54;94624.00;;;11.69;100.00
20013;BME280;10167;42.852;23.042;2023-04-24T00:34:24;94626.66;;;11.69;100.00
20013;BME280;10167;42.852;23.042;2023-04-24T00:36:53;94625.25;;;11.61;100.00
20013;BME280;10167;42.852;23.042;2023-04-24T00:39:22;94621.00;;;11.60;100.00
20013;BME280;10167;42.852;23.042;2023-04-24T00:41:51;94618.84;;;11.57;100.00
20013;BME280;10167;42.852;23.042;2023-04-24T00:44:21;94618.59;;;11.59;100.00
20013;BME280;10167;42.852;23.042;2023-04-24T00:46:52;94605.41;;;11.42;100.00
20013;BME280;10167;42.852;23.042;2023-04-24T00:49:23;94603.78;;;11.41;100.00
20013;BME280;10167;42.852;23.042;2023-04-24T00:51:52;94608.19;;;11.31;100.00
20013;BME280;10167;42.852;23.042;2023-04-24T00:54:21;94600.13;;;11.20;100.00
20013;BME280;10167;42.852;23.042;2023-04-24T00:56:51;94615.72;;;11.17;100.00
20013;BME280;10167;42.852;23.042;2023-04-24T00:59:21;94606.69;;;11.18;100.00
20013;BME280;10167;42.852;23.042;2023-04-24T01:01:52;94603.22;;;11.12;100.00
20013;BME280;10167;42.852;23.042;2023-04-24T01:04:22;94600.47;;;11.07;100.00
20013;BME280;10167;42.852;23.042;2023-04-24T01:06:51;94599.44;;;11.08;100.00
20013;BME280;10167;42.852;23.042;2023-04-24T01:09:22;94594.38;;;11.07;100.00
20013;BME280;10167;42.852;23.042;2023-04-24T01:11:52;94596.41;;;11.00;100.00
20013;BME280;10167;42.852;23.042;2023-04-24T01:14:21;94600.91;;;10.99;100.00
20013;BME280;10167;42.852;23.042;2023-04-24T01:16:52;94602.75;;;10.99;100.00
20013;BME280;10167;42.852;23.042;2023-04-24T01:19:22;94596.97;;;11.02;100.00
20013;BME280;10167;42.852;23.042;2023-04-24T01:21:53;94600.88;;;10.94;100.00
20013;BME280;10167;42.852;23.042;2023-04-24T01:24:24;94592.50;;;11.02;100.00
20013;BME280;10167;42.852;23.042;2023-04-24T01:26:53;94589.88;;;11.07;100.00
20013;BME280;10167;42.852;23.042;2023-04-24T01:29:23;94593.28;;;11.03;100.00
20013;BME280;10167;42.852;23.042;2023-04-24T01:31:52;94590.41;;;11.04;100.00
20013;BME280;10167;42.852;23.042;2023-04-24T01:34:28;94591.44;;;11.03;100.00
20013;BME280;10167;42.852;23.042;2023-04-24T01:36:57;94591.38;;;10.98;100.00
20013;BME280;10167;42.852;23.042;2023-04-24T01:39:27;94584.34;;;10.87;100.00
20013;BME280;10167;42.852;23.042;2023-04-24T01:41:57;94583.38;;;10.93;100.00
20013;BME280;10167;42.852;23.042;2023-04-24T01:44:26;94592.28;;;10.87;100.00
20013;BME280;10167;42.852;23.042;2023-04-24T01:46:56;94592.59;;;10.69;100.00
20013;BME280;10167;42.852;23.042;2023-04-24T01:49:26;94596.03;;;10.69;100.00
20013;BME280;10167;42.852;23.042;2023-04-24T01:51:56;94595.47;;;10.67;100.00
20013;BME280;10167;42.852;23.042;2023-04-24T01:54:26;94590.75;;;10.69;100.00
20013;BME280;10167;42.852;23.042;2023-04-24T01:56:56;94590.03;;;10.57;100.00
20013;BME280;10167;42.852;23.042;2023-04-24T01:59:25;94579.44;;;10.57;100.00
20013;BME280;10167;42.852;23.042;2023-04-24T02:01:55;94579.94;;;10.54;100.00
20013;BME280;10167;42.852;23.042;2023-04-24T02:04:24;94581.53;;;10.55;100.00
20013;BME280;10167;42.852;23.042;2023-04-24T02:06:54;94575.63;;;10.48;100.00
20013;BME280;10167;42.852;23.042;2023-04-24T02:09:24;94574.25;;;10.45;100.00
20013;BME280;10167;42.852;23.042;2023-04-24T02:11:55;94573.69;;;10.43;100.00
20013;BME280;10167;42.852;23.042;2023-04-24T02:14:25;94572.03;;;10.37;100.00
20013;BME280;10167;42.852;23.042;2023-04-24T02:16:54;94562.72;;;10.35;100.00
20013;BME280;10167;42.852;23.042;2023-04-24T02:19:23;94569.72;;;10.24;100.00
20013;BME280;10167;42.852;23.042;2023-04-24T02:21:53;94562.63;;;10.13;100.00
20013;BME280;10167;42.852;23.042;2023-04-24T02:24:22;94561.75;;;10.07;100.00
20013;BME280;10167;42.852;23.042;2023-04-24T02:26:51;94561.44;;;10.04;100.00
20013;BME280;10167;42.852;23.042;2023-04-24T02:29:22;94561.44;;;9.87;100.00
20013;BME280;10167;42.852;23.042;2023-04-24T02:31:52;94559.09;;;9.74;100.00
20013;BME280;10167;42.852;23.042;2023-04-24T02:34:21;94561.66;;;9.69;100.00
20013;BME280;10167;42.852;23.042;2023-04-24T02:36:50;94563.69;;;9.78;100.00
20013;BME280;10167;42.852;23.042;2023-04-24T02:39:21;94559.75;;;9.81;100.00
20013;BME280;10167;42.852;23.042;2023-04-24T02:41:52;94560.56;;;9.81;100.00
20013;BME280;10167;42.852;23.042;2023-04-24T02:44:23;94551.97;;;9.74;100.00
20013;BME280;10167;42.852;23.042;2023-04-24T02:46:52;94564.78;;;9.66;100.00
20013;BME280;10167;42.852;23.042;2023-04-24T02:49:22;94556.91;;;9.54;100.00
20013;BME280;10167;42.852;23.042;2023-04-24T02:51:52;94558.97;;;9.35;100.00
20013;BME280;10167;42.852;23.042;2023-04-24T02:54:21;94563.88;;;9.43;100.00
20013;BME280;10167;42.852;23.042;2023-04-24T02:56:50;94558.41;;;9.50;100.00
20013;BME280;10167;42.852;23.042;2023-04-24T02:59:19;94556.50;;;9.45;100.00
20013;BME280;10167;42.852;23.042;2023-04-24T03:01:50;94559.16;;;9.45;100.00
20013;BME280;10167;42.852;23.042;2023-04-24T03:04:19;94560.56;;;9.36;100.00
20013;BME280;10167;42.852;23.042;2023-04-24T03:06:51;94555.09;;;9.26;100.00
20013;BME280;10167;42.852;23.042;2023-04-24T03:09:22;94557.41;;;9.23;100.00
20013;BME280;10167;42.852;23.042;2023-04-24T03:11:51;94558.69;;;9.20;100.00
20013;BME280;10167;42.852;23.042;2023-04-24T03:14:20;94555.66;;;9.28;100.00
20013;BME280;10167;42.852;23.042;2023-04-24T03:16:51;94549.50;;;9.23;100.00
20013;BME280;10167;42.852;23.042;2023-04-24T03:19:20;94546.22;;;9.32;100.00
20013;BME280;10167;42.852;23.042;2023-04-24T03:22:09;94547.09;;;9.38;100.00
20013;BME280;10167;42.852;23.042;2023-04-24T03:25:14;94549.19;;;9.36;100.00
20013;BME280;10167;42.852;23.042;2023-04-24T03:27:44;94543.13;;;9.35;100.00
20013;BME280;10167;42.852;23.042;2023-04-24T03:30:37;94550.25;;;9.35;100.00
20013;BME280;10167;42.852;23.042;2023-04-24T03:33:09;94544.31;;;9.16;100.00
20013;BME280;10167;42.852;23.042;2023-04-24T03:35:46;94558.44;;;9.22;100.00
20013;BME280;10167;42.852;23.042;2023-04-24T03:38:15;94554.81;;;9.11;100.00
20013;BME280;10167;42.852;23.042;2023-04-24T03:40:47;94547.59;;;9.06;100.00
20013;BME280;10167;42.852;23.042;2023-04-24T03:43:36;94537.78;;;9.19;100.00
20013;BME280;10167;42.852;23.042;2023-04-24T03:46:06;94547.66;;;9.23;100.00
20013;BME280;10167;42.852;23.042;2023-04-24T03:48:46;94548.53;;;9.29;100.00
20013;BME280;10167;42.852;23.042;2023-04-24T03:51:17;94549.66;;;9.33;100.00
20013;BME280;10167;42.852;23.042;2023-04-24T03:53:52;94550.13;;;9.30;100.00
20013;BME280;10167;42.852;23.042;2023-04-24T03:56:27;94559.63;;;9.14;100.00
20013;BME280;10167;42.852;23.042;2023-04-24T03:58:57;94555.81;;;9.22;100.00
20013;BME280;10167;42.852;23.042;2023-04-24T04:01:26;94547.78;;;9.17;100.00
20013;BME280;10167;42.852;23.042;2023-04-24T04:04:08;94560.13;;;9.28;100.00
20013;BME280;10167;42.852;23.042;2023-04-24T04:06:38;94557.59;;;9.33;100.00
20013;BME280;10167;42.852;23.042;2023-04-24T04:09:07;94561.22;;;9.43;100.00
20013;BME280;10167;42.852;23.042;2023-04-24T04:11:37;94566.28;;;9.45;100.00
20013;BME280;10167;42.852;23.042;2023-04-24T04:14:06;94571.41;;;9.52;100.00
20013;BME280;10167;42.852;23.042;2023-04-24T04:16:38;94564.94;;;9.59;100.00
20013;BME280;10167;42.852;23.042;2023-04-24T04:19:09;94555.81;;;9.67;100.00
20013;BME280;10167;42.852;23.042;2023-04-24T04:21:39;94565.53;;;9.50;100.00
20013;BME280;10167;42.852;23.042;2023-04-24T04:24:21;94558.78;;;9.70;100.00
20013;BME280;10167;42.852;23.042;2023-04-24T04:26:52;94563.06;;;9.43;100.00
20013;BME280;10167;42.852;23.042;2023-04-24T04:29:35;94563.41;;;9.63;100.00
20013;BME280;10167;42.852;23.042;2023-04-24T04:32:08;94566.63;;;9.65;100.00
20013;BME280;10167;42.852;23.042;2023-04-24T04:34:39;94567.41;;;9.66;100.00
20013;BME280;10167;42.852;23.042;2023-04-24T04:37:10;94569.59;;;9.69;100.00
20013;BME280;10167;42.852;23.042;2023-04-24T04:39:50;94575.13;;;9.67;100.00
20013;BME280;10167;42.852;23.042;2023-04-24T04:42:24;94570.94;;;9.71;100.00
20013;BME280;10167;42.852;23.042;2023-04-24T04:44:54;94576.91;;;9.78;100.00
20013;BME280;10167;42.852;23.042;2023-04-24T04:47:34;94579.13;;;9.87;100.00
20013;BME280;10167;42.852;23.042;2023-04-24T04:50:06;94574.47;;;9.94;100.00
20013;BME280;10167;42.852;23.042;2023-04-24T04:52:36;94569.91;;;10.06;100.00
20013;BME280;10167;42.852;23.042;2023-04-24T04:55:16;94584.09;;;10.16;100.00
20013;BME280;10167;42.852;23.042;2023-04-24T04:58:08;94583.06;;;10.17;100.00
20013;BME280;10167;42.852;23.042;2023-04-24T05:00:38;94573.16;;;10.25;100.00
20013;BME280;10167;42.852;23.042;2023-04-24T05:03:33;94576.75;;;10.18;100.00
20013;BME280;10167;42.852;23.042;2023-04-24T05:06:08;94575.41;;;10.33;100.00
20013;BME280;10167;42.852;23.042;2023-04-24T05:08:39;94564.72;;;10.44;100.00
20013;BME280;10167;42.852;23.042;2023-04-24T05:11:15;94568.28;;;10.55;100.00
20013;BME280;10167;42.852;23.042;2023-04-24T05:13:44;94572.44;;;10.68;100.00
20013;BME280;10167;42.852;23.042;2023-04-24T05:16:18;94572.00;;;10.76;100.00
20013;BME280;10167;42.852;23.042;2023-04-24T05:18:50;94577.88;;;11.00;100.00
20013;BME280;10167;42.852;23.042;2023-04-24T05:21:25;94582.50;;;11.09;100.00
20013;BME280;10167;42.852;23.042;2023-04-24T05:23:55;94580.53;;;11.21;100.00
20013;BME280;10167;42.852;23.042;2023-04-24T05:26:57;94577.72;;;11.33;100.00
20013;BME280;10167;42.852;23.042;2023-04-24T05:29:33;94576.91;;;11.54;100.00
20013;BME280;10167;42.852;23.042;2023-04-24T05:32:04;94582.28;;;11.64;100.00
20013;BME280;10167;42.852;23.042;2023-04-24T05:34:34;94584.38;;;11.84;100.00
20013;BME280;10167;42.852;23.042;2023-04-24T05:37:05;94586.09;;;12.00;100.00
20013;BME280;10167;42.852;23.042;2023-04-24T05:39:37;94590.63;;;12.00;100.00
20013;BME280;10167;42.852;23.042;2023-04-24T05:42:09;94596.56;;;12.12;100.00
20013;BME280;10167;42.852;23.042;2023-04-24T05:44:38;94596.09;;;12.20;100.00
20013;BME280;10167;42.852;23.042;2023-04-24T05:47:07;94598.03;;;12.30;100.00
20013;BME280;10167;42.852;23.042;2023-04-24T05:49:36;94599.41;;;12.38;100.00
20013;BME280;10167;42.852;23.042;2023-04-24T05:52:08;94601.88;;;12.49;100.00
20013;BME280;10167;42.852;23.042;2023-04-24T05:54:39;94595.47;;;12.45;100.00
20013;BME280;10167;42.852;23.042;2023-04-24T05:57:11;94588.41;;;12.61;100.00
20013;BME280;10167;42.852;23.042;2023-04-24T05:59:51;94587.91;;;12.64;100.00
20013;BME280;10167;42.852;23.042;2023-04-24T06:02:21;94594.09;;;12.80;100.00
20013;BME280;10167;42.852;23.042;2023-04-24T06:04:52;94593.16;;;13.01;100.00
20013;BME280;10167;42.852;23.042;2023-04-24T06:07:27;94599.03;;;13.13;99.38
20013;BME280;10167;42.852;23.042;2023-04-24T06:09:59;94604.97;;;13.25;96.10
20013;BME280;10167;42.852;23.042;2023-04-24T06:12:30;94596.78;;;13.37;95.73
20013;BME280;10167;42.852;23.042;2023-04-24T06:15:09;94605.03;;;13.30;95.02
20013;BME280;10167;42.852;23.042;2023-04-24T06:18:02;94601.63;;;13.55;92.83
20013;BME280;10167;42.852;23.042;2023-04-24T06:20:31;94604.84;;;13.62;93.11
20013;BME280;10167;42.852;23.042;2023-04-24T06:23:03;94604.03;;;13.67;92.19
20013;BME280;10167;42.852;23.042;2023-04-24T06:25:33;94602.78;;;13.85;91.84
20013;BME280;10167;42.852;23.042;2023-04-24T06:28:03;94595.31;;;13.81;93.89
20013;BME280;10167;42.852;23.042;2023-04-24T06:30:32;94604.38;;;13.96;90.36
20013;BME280;10167;42.852;23.042;2023-04-24T06:33:01;94596.13;;;14.02;93.50
20013;BME280;10167;42.852;23.042;2023-04-24T06:35:47;94586.56;;;14.22;89.16
20013;BME280;10167;42.852;23.042;2023-04-24T06:38:17;94581.22;;;14.16;90.41
20013;BME280;10167;42.852;23.042;2023-04-24T06:40:47;94568.47;;;14.08;95.91
20013;BME280;10167;42.852;23.042;2023-04-24T06:43:16;94560.19;;;13.95;94.40
20013;BME280;10167;42.852;23.042;2023-04-24T06:45:45;94564.72;;;14.09;100.00
20013;BME280;10167;42.852;23.042;2023-04-24T06:48:14;94567.63;;;14.23;100.00
20013;BME280;10167;42.852;23.042;2023-04-24T06:50:43;94579.91;;;14.29;89.47
20013;BME280;10167;42.852;23.042;2023-04-24T06:53:14;94575.38;;;14.45;90.16
20013;BME280;10167;42.852;23.042;2023-04-24T06:55:45;94582.78;;;14.83;89.05
20013;BME280;10167;42.852;23.042;2023-04-24T06:58:14;94578.94;;;15.20;82.79
20013;BME280;10167;42.852;23.042;2023-04-24T07:00:43;94586.53;;;15.52;81.67
20013;BME280;10167;42.852;23.042;2023-04-24T07:03:13;94591.03;;;15.61;78.24
20013;BME280;10167;42.852;23.042;2023-04-24T07:05:42;94585.38;;;15.73;80.41
20013;BME280;10167;42.852;23.042;2023-04-24T07:08:12;94585.53;;;15.92;79.31
20013;BME280;10167;42.852;23.042;2023-04-24T07:10:41;94586.84;;;15.94;80.65
20013;BME280;10167;42.852;23.042;2023-04-24T07:13:12;94584.34;;;16.13;81.18
20013;BME280;10167;42.852;23.042;2023-04-24T07:15:41;94592.00;;;16.20;75.41
20013;BME280;10167;42.852;23.042;2023-04-24T07:18:10;94588.75;;;16.28;75.84
20013;BME280;10167;42.852;23.042;2023-04-24T07:20:40;94573.03;;;16.21;77.96
20013;BME280;10167;42.852;23.042;2023-04-24T07:23:09;94577.25;;;16.27;77.69
20013;BME280;10167;42.852;23.042;2023-04-24T07:25:39;94571.69;;;16.24;75.44
20013;BME280;10167;42.852;23.042;2023-04-24T07:28:08;94576.06;;;16.44;77.42
20013;BME280;10167;42.852;23.042;2023-04-24T07:30:39;94577.78;;;16.63;76.67
20013;BME280;10167;42.852;23.042;2023-04-24T07:33:08;94570.06;;;16.86;73.74
20013;BME280;10167;42.852;23.042;2023-04-24T07:35:40;94569.28;;;17.09;76.65
20013;BME280;10167;42.852;23.042;2023-04-24T07:38:09;94566.44;;;17.24;74.82
20013;BME280;10167;42.852;23.042;2023-04-24T07:40:38;94570.03;;;17.15;72.28
20013;BME280;10167;42.852;23.042;2023-04-24T07:43:08;94565.25;;;17.54;71.83
20013;BME280;10167;42.852;23.042;2023-04-24T07:45:38;94557.72;;;17.80;70.43
20013;BME280;10167;42.852;23.042;2023-04-24T07:48:08;94560.34;;;18.18;68.84
20013;BME280;10167;42.852;23.042;2023-04-24T07:50:38;94561.31;;;18.40;69.71
20013;BME280;10167;42.852;23.042;2023-04-24T07:53:07;94561.94;;;18.51;66.17
20013;BME280;10167;42.852;23.042;2023-04-24T07:55:36;94558.34;;;18.74;64.81
20013;BME280;10167;42.852;23.042;2023-04-24T07:58:05;94555.41;;;18.90;66.32
20013;BME280;10167;42.852;23.042;2023-04-24T08:00:34;94555.63;;;19.07;65.34
20013;BME280;10167;42.852;23.042;2023-04-24T08:03:05;94547.25;;;19.08;63.72
20013;BME280;10167;42.852;23.042;2023-04-24T08:05:35;94546.16;;;19.09;63.27
20013;BME280;10167;42.852;23.042;2023-04-24T08:08:07;94543.38;;;19.01;63.89
20013;BME280;10167;42.852;23.042;2023-04-24T08:10:37;94541.28;;;18.98;63.96
20013;BME280;10167;42.852;23.042;2023-04-24T08:13:06;94536.34;;;19.18;63.21
20013;BME280;10167;42.852;23.042;2023-04-24T08:15:35;94534.16;;;19.07;62.02
20013;BME280;10167;42.852;23.042;2023-04-24T08:18:06;94534.16;;;18.93;63.23
20013;BME280;10167;42.852;23.042;2023-04-24T08:20:35;94530.66;;;19.34;61.30
20013;BME280;10167;42.852;23.042;2023-04-24T08:23:05;94529.34;;;19.45;61.87
20013;BME280;10167;42.852;23.042;2023-04-24T08:25:34;94528.63;;;19.67;66.31
20013;BME280;10167;42.852;23.042;2023-04-24T08:28:06;94529.19;;;19.91;58.59
20013;BME280;10167;42.852;23.042;2023-04-24T08:30:37;94528.78;;;19.98;58.83
20013;BME280;10167;42.852;23.042;2023-04-24T08:33:08;94520.81;;;19.92;57.26
20013;BME280;10167;42.852;23.042;2023-04-24T08:35:38;94512.47;;;20.39;59.20
20013;BME280;10167;42.852;23.042;2023-04-24T08:38:07;94511.97;;;20.59;57.68
20013;BME280;10167;42.852;23.042;2023-04-24T08:40:36;94504.59;;;20.42;57.69
20013;BME280;10167;42.852;23.042;2023-04-24T08:43:07;94507.72;;;20.66;59.32
20013;BME280;10167;42.852;23.042;2023-04-24T08:45:36;94502.88;;;21.17;56.21
20013;BME280;10167;42.852;23.042;2023-04-24T08:48:08;94499.31;;;21.38;56.86
20013;BME280;10167;42.852;23.042;2023-04-24T08:50:54;94494.06;;;21.33;53.64
20013;BME280;10167;42.852;23.042;2023-04-24T08:53:24;94493.41;;;21.19;57.39
20013;BME280;10167;42.852;23.042;2023-04-24T08:55:55;94493.91;;;21.30;53.88
20013;BME280;10167;42.852;23.042;2023-04-24T08:58:25;94486.00;;;21.42;53.60
20013;BME280;10167;42.852;23.042;2023-04-24T09:00:55;94479.53;;;21.60;54.42
20013;BME280;10167;42.852;23.042;2023-04-24T09:03:27;94478.75;;;21.94;53.51
20013;BME280;10167;42.852;23.042;2023-04-24T09:05:58;94471.94;;;21.80;52.61
20013;BME280;10167;42.852;23.042;2023-04-24T09:08:28;94468.31;;;21.67;50.49
20013;BME280;10167;42.852;23.042;2023-04-24T09:10:58;94469.41;;;21.83;50.78
20013;BME280;10167;42.852;23.042;2023-04-24T09:13:30;94472.88;;;21.92;51.57
20013;BME280;10167;42.852;23.042;2023-04-24T09:16:00;94468.78;;;21.86;50.51
20013;BME280;10167;42.852;23.042;2023-04-24T09:18:31;94465.63;;;22.10;51.16
20013;BME280;10167;42.852;23.042;2023-04-24T09:21:02;94458.72;;;22.38;49.40
20013;BME280;10167;42.852;23.042;2023-04-24T09:23:32;94465.59;;;22.19;49.83
20013;BME280;10167;42.852;23.042;2023-04-24T09:26:02;94458.53;;;22.52;51.07
20013;BME280;10167;42.852;23.042;2023-04-24T09:28:36;94453.19;;;22.43;49.08
20013;BME280;10167;42.852;23.042;2023-04-24T09:31:07;94443.22;;;22.73;49.17
20013;BME280;10167;42.852;23.042;2023-04-24T09:33:38;94444.22;;;23.07;47.69
20013;BME280;10167;42.852;23.042;2023-04-24T09:36:08;94451.16;;;23.16;46.99
20013;BME280;10167;42.852;23.042;2023-04-24T09:38:38;94445.94;;;23.11;48.51
20013;BME280;10167;42.852;23.042;2023-04-24T09:41:08;94439.53;;;23.45;46.76
20013;BME280;10167;42.852;23.042;2023-04-24T09:43:42;94446.13;;;23.36;47.49
20013;BME280;10167;42.852;23.042;2023-04-24T09:46:11;94435.00;;;22.61;47.54
20013;BME280;10167;42.852;23.042;2023-04-24T09:48:42;94428.50;;;23.30;48.09
20013;BME280;10167;42.852;23.042;2023-04-24T09:51:12;94427.31;;;23.18;47.71
20013;BME280;10167;42.852;23.042;2023-04-24T09:53:45;94426.22;;;22.90;48.27
20013;BME280;10167;42.852;23.042;2023-04-24T09:56:25;94422.75;;;22.72;47.93
20013;BME280;10167;42.852;23.042;2023-04-24T09:58:54;94416.66;;;22.93;47.88
20013;BME280;10167;42.852;23.042;2023-04-24T10:01:30;94419.34;;;23.22;47.17
20013;BME280;10167;42.852;23.042;2023-04-24T10:04:01;94420.13;;;23.73;47.00
20013;BME280;10167;42.852;23.042;2023-04-24T10:06:33;94411.53;;;23.00;46.22
20013;BME280;10167;42.852;23.042;2023-04-24T10:09:03;94408.94;;;22.74;46.69
20013;BME280;10167;42.852;23.042;2023-04-24T10:11:33;94401.06;;;22.98;47.96
20013;BME280;10167;42.852;23.042;2023-04-24T10:14:02;94397.25;;;22.99;47.50
20013;BME280;10167;42.852;23.042;2023-04-24T10:16:32;94390.13;;;22.95;47.36
20013;BME280;10167;42.852;23.042;2023-04-24T10:19:03;94387.63;;;22.43;47.94
20013;BME280;10167;42.852;23.042;2023-04-24T10:21:32;94391.25;;;22.47;48.33
20013;BME280;10167;42.852;23.042;2023-04-24T10:24:03;94384.63;;;22.83;47.75
20013;BME280;10167;42.852;23.042;2023-04-24T10:26:32;94382.09;;;22.69;46.44
20013;BME280;10167;42.852;23.042;2023-04-24T10:29:01;94383.44;;;22.07;48.49
20013;BME280;10167;42.852;23.042;2023-04-24T10:31:31;94371.97;;;22.28;48.32
20013;BME280;10167;42.852;23.042;2023-04-24T10:34:03;94378.13;;;22.37;46.89
20013;BME280;10167;42.852;23.042;2023-04-24T10:36:34;94370.00;;;21.99;47.42
20013;BME280;10167;42.852;23.042;2023-04-24T10:39:06;94380.91;;;22.02;47.86
20013;BME280;10167;42.852;23.042;2023-04-24T10:41:37;94369.66;;;21.92;48.83
20013;BME280;10167;42.852;23.042;2023-04-24T10:44:07;94360.16;;;21.68;49.53
20013;BME280;10167;42.852;23.042;2023-04-24T10:46:37;94361.44;;;21.71;50.35
20013;BME280;10167;42.852;23.042;2023-04-24T10:49:09;94352.75;;;21.65;52.72
20013;BME280;10167;42.852;23.042;2023-04-24T10:51:46;94350.38;;;21.64;51.28
20013;BME280;10167;42.852;23.042;2023-04-24T10:54:23;94345.94;;;21.33;55.21
20013;BME280;10167;42.852;23.042;2023-04-24T10:56:53;94356.09;;;21.54;51.80
20013;BME280;10167;42.852;23.042;2023-04-24T10:59:27;94351.00;;;21.61;49.22
20013;BME280;10167;42.852;23.042;2023-04-24T11:01:56;94360.03;;;21.65;47.47
20013;BME280;10167;42.852;23.042;2023-04-24T11:04:32;94357.31;;;21.82;45.71
20013;BME280;10167;42.852;23.042;2023-04-24T11:07:03;94360.63;;;21.96;44.79
20013;BME280;10167;42.852;23.042;2023-04-24T11:09:32;94360.22;;;22.24;42.54
20013;BME280;10167;42.852;23.042;2023-04-24T11:12:05;94342.66;;;22.18;42.70
20013;BME280;10167;42.852;23.042;2023-04-24T11:15:00;94336.75;;;22.24;44.03
20013;BME280;10167;42.852;23.042;2023-04-24T11:17:34;94335.31;;;22.27;42.60
20013;BME280;10167;42.852;23.042;2023-04-24T11:20:08;94340.66;;;21.89;43.14
20013;BME280;10167;42.852;23.042;2023-04-24T11:22:54;94335.13;;;21.68;45.71
20013;BME280;10167;42.852;23.042;2023-04-24T11:25:25;94331.38;;;21.43;47.29
20013;BME280;10167;42.852;23.042;2023-04-24T11:28:04;94330.06;;;21.15;50.99
20013;BME280;10167;42.852;23.042;2023-04-24T11:30:33;94336.38;;;20.93;47.95
20013;BME280;10167;42.852;23.042;2023-04-24T11:33:03;94319.56;;;20.70;57.86
20013;BME280;10167;42.852;23.042;2023-04-24T11:35:40;94313.31;;;20.35;68.63
20013;BME280;10167;42.852;23.042;2023-04-24T11:38:10;94312.69;;;19.76;67.07
20013;BME280;10167;42.852;23.042;2023-04-24T11:40:51;94312.25;;;19.52;68.00
20013;BME280;10167;42.852;23.042;2023-04-24T11:43:21;94315.31;;;19.01;65.36
20013;BME280;10167;42.852;23.042;2023-04-24T11:45:50;94307.47;;;19.04;67.78
20013;BME280;10167;42.852;23.042;2023-04-24T11:48:20;94315.69;;;18.72;69.18
20013;BME280;10167;42.852;23.042;2023-04-24T11:50:52;94303.81;;;18.86;71.40
20013;BME280;10167;42.852;23.042;2023-04-24T11:53:22;94302.97;;;18.64;66.77
20013;BME280;10167;42.852;23.042;2023-04-24T11:55:51;94302.16;;;18.77;84.07
20013;BME280;10167;42.852;23.042;2023-04-24T11:58:20;94299.47;;;19.13;94.53
20013;BME280;10167;42.852;23.042;2023-04-24T12:00:56;94288.97;;;19.70;99.19
20013;BME280;10167;42.852;23.042;2023-04-24T12:03:27;94295.22;;;20.18;77.42
20013;BME280;10167;42.852;23.042;2023-04-24T12:06:06;94286.34;;;20.75;73.37
20013;BME280;10167;42.852;23.042;2023-04-24T12:08:37;94285.09;;;21.07;69.91
20013;BME280;10167;42.852;23.042;2023-04-24T12:11:07;94281.06;;;21.73;58.34
20013;BME280;10167;42.852;23.042;2023-04-24T12:13:36;94276.63;;;22.24;53.53
20013;BME280;10167;42.852;23.042;2023-04-24T12:16:06;94265.72;;;23.00;62.64
20013;BME280;10167;42.852;23.042;2023-04-24T12:18:41;94282.41;;;23.88;44.25
20013;BME280;10167;42.852;23.042;2023-04-24T12:21:21;94282.66;;;24.08;43.39
20013;BME280;10167;42.852;23.042;2023-04-24T12:23:54;94274.47;;;24.53;46.36
20013;BME280;10167;42.852;23.042;2023-04-24T12:26:24;94275.06;;;24.58;42.05
20013;BME280;10167;42.852;23.042;2023-04-24T12:28:53;94265.22;;;24.42;43.11
20013;BME280;10167;42.852;23.042;2023-04-24T12:31:22;94251.81;;;25.22;42.66
20013;BME280;10167;42.852;23.042;2023-04-24T12:33:52;94250.56;;;25.19;40.31
20013;BME280;10167;42.852;23.042;2023-04-24T12:36:23;94255.28;;;24.82;40.59
20013;BME280;10167;42.852;23.042;2023-04-24T12:38:55;94243.81;;;25.13;42.29
20013;BME280;10167;42.852;23.042;2023-04-24T12:41:24;94242.84;;;25.33;41.62
20013;BME280;10167;42.852;23.042;2023-04-24T12:43:54;94249.75;;;24.79;41.16
20013;BME280;10167;42.852;23.042;2023-04-24T12:46:25;94247.59;;;24.96;39.80
20013;BME280;10167;42.852;23.042;2023-04-24T12:48:54;94236.16;;;25.15;40.06
20013;BME280;10167;42.852;23.042;2023-04-24T12:51:24;94226.63;;;24.93;38.05
20013;BME280;10167;42.852;23.042;2023-04-24T12:53:54;94221.56;;;24.19;40.08
20013;BME280;10167;42.852;23.042;2023-04-24T12:56:23;94217.75;;;24.08;41.52
20013;BME280;10167;42.852;23.042;2023-04-24T12:58:52;94205.31;;;23.58;45.44
20013;BME280;10167;42.852;23.042;2023-04-24T13:01:21;94205.59;;;24.02;46.31
20013;BME280;10167;42.852;23.042;2023-04-24T13:03:51;94195.22;;;23.92;44.06
20013;BME280;10167;42.852;23.042;2023-04-24T13:06:20;94202.06;;;23.77;42.29
20013;BME280;10167;42.852;23.042;2023-04-24T13:08:52;94195.31;;;24.19;41.87
20013;BME280;10167;42.852;23.042;2023-04-24T13:11:22;94189.84;;;24.80;40.35